sensor_id;sensor_type;location;lat;lon;timestamp;P1;durP1;ratioP1;P2;durP2;ratioP2
40116;SDS011;25829;50.228;18.936;2023-01-04T00:01:01;40.07;;;23.00;;
40116;SDS011;25829;50.228;18.936;2023-01-04T00:04:03;36.33;;;20.93;;
40116;SDS011;25829;50.228;18.936;2023-01-04T00:07:04;41.83;;;24.50;;
40116;SDS011;25829;50.228;18.936;2023-01-04T00:10:05;47.47;;;25.30;;
40116;SDS011;25829;50.228;18.936;2023-01-04T00:13:05;44.30;;;25.00;;
40116;SDS011;25829;50.228;18.936;2023-01-04T00:16:07;49.13;;;26.63;;
40116;SDS011;25829;50.228;18.936;2023-01-04T00:19:13;40.87;;;23.80;;
40116;SDS011;25829;50.228;18.936;2023-01-04T00:22:14;41.50;;;23.53;;
40116;SDS011;25829;50.228;18.936;2023-01-04T00:25:14;49.23;;;26.00;;
40116;SDS011;25829;50.228;18.936;2023-01-04T00:28:15;52.10;;;29.43;;
40116;SDS011;25829;50.228;18.936;2023-01-04T00:31:17;69.37;;;34.40;;
40116;SDS011;25829;50.228;18.936;2023-01-04T00:34:17;54.67;;;29.67;;
40116;SDS011;25829;50.228;18.936;2023-01-04T00:37:18;53.20;;;27.30;;
40116;SDS011;25829;50.228;18.936;2023-01-04T00:40:19;72.07;;;34.47;;
40116;SDS011;25829;50.228;18.936;2023-01-04T00:43:20;55.27;;;32.27;;
40116;SDS011;25829;50.228;18.936;2023-01-04T00:46:20;54.63;;;29.53;;
40116;SDS011;25829;50.228;18.936;2023-01-04T00:49:21;61.87;;;29.10;;
40116;SDS011;25829;50.228;18.936;2023-01-04T00:52:22;55.27;;;30.47;;
40116;SDS011;25829;50.228;18.936;2023-01-04T00:55:23;42.27;;;26.53;;
40116;SDS011;25829;50.228;18.936;2023-01-04T00:58:24;43.87;;;27.80;;
40116;SDS011;25829;50.228;18.936;2023-01-04T01:01:25;46.53;;;27.87;;
40116;SDS011;25829;50.228;18.936;2023-01-04T01:04:26;50.27;;;27.60;;
40116;SDS011;25829;50.228;18.936;2023-01-04T01:07:27;42.87;;;27.43;;
40116;SDS011;25829;50.228;18.936;2023-01-04T01:10:28;45.77;;;28.20;;
40116;SDS011;25829;50.228;18.936;2023-01-04T01:13:29;51.27;;;28.67;;
40116;SDS011;25829;50.228;18.936;2023-01-04T01:16:30;50.23;;;29.50;;
40116;SDS011;25829;50.228;18.936;2023-01-04T01:19:31;51.50;;;29.43;;
40116;SDS011;25829;50.228;18.936;2023-01-04T01:22:33;51.00;;;29.27;;
40116;SDS011;25829;50.228;18.936;2023-01-04T01:25:35;52.83;;;30.47;;
40116;SDS011;25829;50.228;18.936;2023-01-04T01:28:35;47.80;;;30.47;;
40116;SDS011;25829;50.228;18.936;2023-01-04T01:31:36;47.83;;;30.10;;
40116;SDS011;25829;50.228;18.936;2023-01-04T01:34:37;66.60;;;34.37;;
40116;SDS011;25829;50.228;18.936;2023-01-04T01:37:38;59.93;;;33.90;;
40116;SDS011;25829;50.228;18.936;2023-01-04T01:40:41;69.70;;;38.83;;
40116;SDS011;25829;50.228;18.936;2023-01-04T01:43:56;55.47;;;31.63;;
40116;SDS011;25829;50.228;18.936;2023-01-04T01:46:59;52.13;;;29.80;;
40116;SDS011;25829;50.228;18.936;2023-01-04T01:50:02;58.40;;;34.13;;
40116;SDS011;25829;50.228;18.936;2023-01-04T01:53:05;60.93;;;31.43;;
40116;SDS011;25829;50.228;18.936;2023-01-04T01:56:08;57.33;;;33.13;;
40116;SDS011;25829;50.228;18.936;2023-01-04T01:59:10;56.20;;;34.37;;
40116;SDS011;25829;50.228;18.936;2023-01-04T02:02:13;62.83;;;36.20;;
40116;SDS011;25829;50.228;18.936;2023-01-04T02:05:13;62.93;;;34.83;;
40116;SDS011;25829;50.228;18.936;2023-01-04T02:08:17;68.57;;;35.93;;
40116;SDS011;25829;50.228;18.936;2023-01-04T02:11:21;64.03;;;35.07;;
40116;SDS011;25829;50.228;18.936;2023-01-04T02:14:22;68.03;;;36.60;;
40116;SDS011;25829;50.228;18.936;2023-01-04T02:17:38;61.50;;;32.60;;
40116;SDS011;25829;50.228;18.936;2023-01-04T02:21:06;68.37;;;32.47;;
40116;SDS011;25829;50.228;18.936;2023-01-04T02:24:25;53.00;;;28.97;;
40116;SDS011;25829;50.228;18.936;2023-01-04T02:27:52;53.03;;;31.20;;
40116;SDS011;25829;50.228;18.936;2023-01-04T02:31:56;72.03;;;37.47;;
40116;SDS011;25829;50.228;18.936;2023-01-04T02:34:45;69.93;;;35.67;;
40116;SDS011;25829;50.228;18.936;2023-01-04T02:41:33;68.57;;;37.70;;
40116;SDS011;25829;50.228;18.936;2023-01-04T02:44:49;69.70;;;37.73;;
40116;SDS011;25829;50.228;18.936;2023-01-04T02:48:04;75.87;;;38.27;;
40116;SDS011;25829;50.228;18.936;2023-01-04T02:54:27;85.47;;;40.90;;
40116;SDS011;25829;50.228;18.936;2023-01-04T03:02:07;69.17;;;36.53;;
40116;SDS011;25829;50.228;18.936;2023-01-04T03:09:06;65.33;;;36.03;;
40116;SDS011;25829;50.228;18.936;2023-01-04T03:12:22;84.13;;;39.13;;
40116;SDS011;25829;50.228;18.936;2023-01-04T03:15:32;75.93;;;40.73;;
40116;SDS011;25829;50.228;18.936;2023-01-04T03:18:39;74.80;;;41.37;;
40116;SDS011;25829;50.228;18.936;2023-01-04T03:21:42;79.73;;;43.30;;
40116;SDS011;25829;50.228;18.936;2023-01-04T03:24:45;81.17;;;44.87;;
40116;SDS011;25829;50.228;18.936;2023-01-04T03:28:05;83.40;;;43.73;;
40116;SDS011;25829;50.228;18.936;2023-01-04T03:34:54;83.73;;;42.70;;
40116;SDS011;25829;50.228;18.936;2023-01-04T03:38:15;82.43;;;44.20;;
40116;SDS011;25829;50.228;18.936;2023-01-04T03:41:44;87.67;;;43.97;;
40116;SDS011;25829;50.228;18.936;2023-01-04T03:48:50;88.13;;;42.77;;
40116;SDS011;25829;50.228;18.936;2023-01-04T03:51:59;87.30;;;44.53;;
40116;SDS011;25829;50.228;18.936;2023-01-04T03:55:03;91.27;;;46.70;;
40116;SDS011;25829;50.228;18.936;2023-01-04T03:58:07;82.80;;;44.20;;
40116;SDS011;25829;50.228;18.936;2023-01-04T04:01:08;95.13;;;48.17;;
40116;SDS011;25829;50.228;18.936;2023-01-04T04:04:09;87.60;;;47.00;;
40116;SDS011;25829;50.228;18.936;2023-01-04T04:07:29;92.53;;;46.30;;
40116;SDS011;25829;50.228;18.936;2023-01-04T04:10:50;89.93;;;45.63;;
40116;SDS011;25829;50.228;18.936;2023-01-04T04:13:54;85.30;;;44.67;;
40116;SDS011;25829;50.228;18.936;2023-01-04T04:17:04;78.63;;;43.37;;
40116;SDS011;25829;50.228;18.936;2023-01-04T04:20:04;70.97;;;41.57;;
40116;SDS011;25829;50.228;18.936;2023-01-04T04:23:05;77.27;;;41.70;;
40116;SDS011;25829;50.228;18.936;2023-01-04T04:26:06;74.80;;;40.30;;
40116;SDS011;25829;50.228;18.936;2023-01-04T04:29:07;78.23;;;40.73;;
40116;SDS011;25829;50.228;18.936;2023-01-04T04:32:08;73.43;;;39.10;;
40116;SDS011;25829;50.228;18.936;2023-01-04T04:35:08;68.30;;;38.87;;
40116;SDS011;25829;50.228;18.936;2023-01-04T04:38:10;69.67;;;38.23;;
40116;SDS011;25829;50.228;18.936;2023-01-04T04:41:11;65.43;;;36.60;;
40116;SDS011;25829;50.228;18.936;2023-01-04T04:44:32;64.23;;;35.73;;
40116;SDS011;25829;50.228;18.936;2023-01-04T04:47:34;63.20;;;37.63;;
40116;SDS011;25829;50.228;18.936;2023-01-04T04:50:34;66.17;;;36.50;;
40116;SDS011;25829;50.228;18.936;2023-01-04T04:53:35;68.87;;;37.20;;
40116;SDS011;25829;50.228;18.936;2023-01-04T04:56:39;63.30;;;35.83;;
40116;SDS011;25829;50.228;18.936;2023-01-04T04:59:40;70.30;;;36.27;;
40116;SDS011;25829;50.228;18.936;2023-01-04T05:02:40;65.57;;;37.00;;
40116;SDS011;25829;50.228;18.936;2023-01-04T05:05:41;72.87;;;38.17;;
40116;SDS011;25829;50.228;18.936;2023-01-04T05:08:42;69.00;;;37.30;;
40116;SDS011;25829;50.228;18.936;2023-01-04T05:11:43;70.37;;;39.27;;
40116;SDS011;25829;50.228;18.936;2023-01-04T05:15:02;61.13;;;35.50;;
40116;SDS011;25829;50.228;18.936;2023-01-04T05:18:04;65.40;;;35.87;;
40116;SDS011;25829;50.228;18.936;2023-01-04T05:21:05;58.23;;;35.23;;
40116;SDS011;25829;50.228;18.936;2023-01-04T05:24:06;67.40;;;36.27;;
40116;SDS011;25829;50.228;18.936;2023-01-04T05:27:07;66.47;;;36.43;;
40116;SDS011;25829;50.228;18.936;2023-01-04T05:30:09;67.23;;;37.57;;
40116;SDS011;25829;50.228;18.936;2023-01-04T05:33:31;64.50;;;36.10;;
40116;SDS011;25829;50.228;18.936;2023-01-04T05:36:32;60.70;;;36.53;;
40116;SDS011;25829;50.228;18.936;2023-01-04T05:39:33;63.63;;;36.37;;
40116;SDS011;25829;50.228;18.936;2023-01-04T05:42:34;57.00;;;34.70;;
40116;SDS011;25829;50.228;18.936;2023-01-04T05:45:36;62.90;;;36.00;;
40116;SDS011;25829;50.228;18.936;2023-01-04T05:48:37;62.90;;;34.53;;
40116;SDS011;25829;50.228;18.936;2023-01-04T05:51:39;63.83;;;34.37;;
40116;SDS011;25829;50.228;18.936;2023-01-04T05:54:39;55.97;;;32.07;;
40116;SDS011;25829;50.228;18.936;2023-01-04T05:57:40;53.27;;;32.77;;
40116;SDS011;25829;50.228;18.936;2023-01-04T06:00:42;54.83;;;32.03;;
40116;SDS011;25829;50.228;18.936;2023-01-04T06:03:44;57.03;;;35.43;;
40116;SDS011;25829;50.228;18.936;2023-01-04T06:06:45;63.00;;;33.50;;
40116;SDS011;25829;50.228;18.936;2023-01-04T06:09:46;58.93;;;31.87;;
40116;SDS011;25829;50.228;18.936;2023-01-04T06:12:47;57.27;;;33.27;;
40116;SDS011;25829;50.228;18.936;2023-01-04T06:15:49;61.23;;;35.83;;
40116;SDS011;25829;50.228;18.936;2023-01-04T06:18:50;54.27;;;32.53;;
40116;SDS011;25829;50.228;18.936;2023-01-04T06:21:51;64.33;;;33.67;;
40116;SDS011;25829;50.228;18.936;2023-01-04T06:24:54;60.50;;;34.67;;
40116;SDS011;25829;50.228;18.936;2023-01-04T06:27:54;55.57;;;33.73;;
40116;SDS011;25829;50.228;18.936;2023-01-04T06:30:55;56.33;;;33.30;;
40116;SDS011;25829;50.228;18.936;2023-01-04T06:33:56;57.77;;;35.67;;
40116;SDS011;25829;50.228;18.936;2023-01-04T06:36:57;62.00;;;36.63;;
40116;SDS011;25829;50.228;18.936;2023-01-04T06:39:59;57.93;;;35.00;;
40116;SDS011;25829;50.228;18.936;2023-01-04T06:43:00;60.17;;;35.67;;
40116;SDS011;25829;50.228;18.936;2023-01-04T06:46:00;66.23;;;37.43;;
40116;SDS011;25829;50.228;18.936;2023-01-04T06:49:02;62.20;;;38.47;;
40116;SDS011;25829;50.228;18.936;2023-01-04T06:52:04;66.40;;;35.97;;
40116;SDS011;25829;50.228;18.936;2023-01-04T06:55:06;65.73;;;37.93;;
40116;SDS011;25829;50.228;18.936;2023-01-04T06:58:08;61.17;;;36.30;;
40116;SDS011;25829;50.228;18.936;2023-01-04T07:01:09;69.43;;;37.97;;
40116;SDS011;25829;50.228;18.936;2023-01-04T07:04:10;64.63;;;38.77;;
40116;SDS011;25829;50.228;18.936;2023-01-04T07:07:11;71.63;;;40.80;;
40116;SDS011;25829;50.228;18.936;2023-01-04T07:10:11;75.47;;;41.80;;
40116;SDS011;25829;50.228;18.936;2023-01-04T07:13:12;75.10;;;42.83;;
40116;SDS011;25829;50.228;18.936;2023-01-04T07:16:13;66.00;;;37.00;;
40116;SDS011;25829;50.228;18.936;2023-01-04T07:19:14;68.90;;;37.30;;
40116;SDS011;25829;50.228;18.936;2023-01-04T07:22:15;62.57;;;36.57;;
40116;SDS011;25829;50.228;18.936;2023-01-04T07:25:16;62.73;;;35.23;;
40116;SDS011;25829;50.228;18.936;2023-01-04T07:28:17;66.20;;;39.90;;
40116;SDS011;25829;50.228;18.936;2023-01-04T07:31:38;60.83;;;37.07;;
40116;SDS011;25829;50.228;18.936;2023-01-04T07:34:38;61.27;;;37.60;;
40116;SDS011;25829;50.228;18.936;2023-01-04T07:37:41;90.63;;;53.67;;
40116;SDS011;25829;50.228;18.936;2023-01-04T07:40:42;192.90;;;109.23;;
40116;SDS011;25829;50.228;18.936;2023-01-04T07:43:44;145.50;;;82.80;;
40116;SDS011;25829;50.228;18.936;2023-01-04T07:46:45;182.50;;;100.43;;
40116;SDS011;25829;50.228;18.936;2023-01-04T07:49:47;103.57;;;61.67;;
40116;SDS011;25829;50.228;18.936;2023-01-04T07:52:49;121.43;;;73.80;;
40116;SDS011;25829;50.228;18.936;2023-01-04T07:55:54;112.00;;;64.13;;
40116;SDS011;25829;50.228;18.936;2023-01-04T07:59:03;106.23;;;54.87;;
40116;SDS011;25829;50.228;18.936;2023-01-04T08:02:05;123.87;;;71.63;;
40116;SDS011;25829;50.228;18.936;2023-01-04T08:05:09;111.57;;;60.60;;
40116;SDS011;25829;50.228;18.936;2023-01-04T08:08:09;134.27;;;63.20;;
40116;SDS011;25829;50.228;18.936;2023-01-04T08:11:17;121.83;;;66.90;;
40116;SDS011;25829;50.228;18.936;2023-01-04T08:14:21;89.63;;;51.33;;
40116;SDS011;25829;50.228;18.936;2023-01-04T08:17:22;98.53;;;52.23;;
40116;SDS011;25829;50.228;18.936;2023-01-04T08:20:23;84.93;;;47.07;;
40116;SDS011;25829;50.228;18.936;2023-01-04T08:23:27;79.90;;;43.47;;
40116;SDS011;25829;50.228;18.936;2023-01-04T08:26:35;72.17;;;42.30;;
40116;SDS011;25829;50.228;18.936;2023-01-04T08:29:35;66.50;;;37.73;;
40116;SDS011;25829;50.228;18.936;2023-01-04T08:32:38;58.27;;;36.00;;
40116;SDS011;25829;50.228;18.936;2023-01-04T08:35:39;46.30;;;28.50;;
40116;SDS011;25829;50.228;18.936;2023-01-04T08:38:46;25.20;;;15.23;;
40116;SDS011;25829;50.228;18.936;2023-01-04T08:41:50;13.87;;;9.03;;
40116;SDS011;25829;50.228;18.936;2023-01-04T08:44:53;15.70;;;8.73;;
40116;SDS011;25829;50.228;18.936;2023-01-04T08:47:53;15.73;;;9.93;;
40116;SDS011;25829;50.228;18.936;2023-01-04T08:50:57;15.50;;;8.73;;
40116;SDS011;25829;50.228;18.936;2023-01-04T08:54:05;14.77;;;8.63;;
40116;SDS011;25829;50.228;18.936;2023-01-04T08:57:06;20.17;;;8.60;;
40116;SDS011;25829;50.228;18.936;2023-01-04T09:00:07;14.83;;;8.33;;
40116;SDS011;25829;50.228;18.936;2023-01-04T09:03:09;13.03;;;7.70;;
40116;SDS011;25829;50.228;18.936;2023-01-04T09:06:10;12.63;;;8.70;;
40116;SDS011;25829;50.228;18.936;2023-01-04T09:09:14;12.83;;;7.60;;
40116;SDS011;25829;50.228;18.936;2023-01-04T09:12:15;13.13;;;7.67;;
40116;SDS011;25829;50.228;18.936;2023-01-04T09:15:16;14.97;;;7.60;;
40116;SDS011;25829;50.228;18.936;2023-01-04T09:18:17;8.57;;;6.60;;
40116;SDS011;25829;50.228;18.936;2023-01-04T09:21:20;11.47;;;7.27;;
40116;SDS011;25829;50.228;18.936;2023-01-04T09:24:24;10.90;;;6.93;;
40116;SDS011;25829;50.228;18.936;2023-01-04T09:27:25;8.50;;;6.37;;
40116;SDS011;25829;50.228;18.936;2023-01-04T09:30:26;9.73;;;6.97;;
40116;SDS011;25829;50.228;18.936;2023-01-04T09:33:30;8.87;;;5.97;;
40116;SDS011;25829;50.228;18.936;2023-01-04T09:36:33;13.07;;;6.57;;
40116;SDS011;25829;50.228;18.936;2023-01-04T09:39:34;11.10;;;7.17;;
40116;SDS011;25829;50.228;18.936;2023-01-04T09:42:44;10.97;;;6.73;;
40116;SDS011;25829;50.228;18.936;2023-01-04T09:45:48;9.10;;;6.33;;
40116;SDS011;25829;50.228;18.936;2023-01-04T09:48:55;9.23;;;6.83;;
40116;SDS011;25829;50.228;18.936;2023-01-04T09:59:19;10.17;;;6.77;;
40116;SDS011;25829;50.228;18.936;2023-01-04T10:06:22;9.75;;;6.53;;
40116;SDS011;25829;50.228;18.936;2023-01-04T10:09:23;8.27;;;6.78;;
40116;SDS011;25829;50.228;18.936;2023-01-04T10:20:08;9.82;;;6.78;;
40116;SDS011;25829;50.228;18.936;2023-01-04T10:30:37;10.05;;;7.30;;
40116;SDS011;25829;50.228;18.936;2023-01-04T10:33:48;8.95;;;6.03;;
40116;SDS011;25829;50.228;18.936;2023-01-04T10:37:03;8.23;;;5.90;;
40116;SDS011;25829;50.228;18.936;2023-01-04T10:40:32;9.07;;;6.07;;
40116;SDS011;25829;50.228;18.936;2023-01-04T10:50:54;9.50;;;7.00;;
40116;SDS011;25829;50.228;18.936;2023-01-04T10:54:47;9.07;;;6.05;;
40116;SDS011;25829;50.228;18.936;2023-01-04T10:57:34;8.13;;;6.30;;
40116;SDS011;25829;50.228;18.936;2023-01-04T11:00:42;7.63;;;5.80;;
40116;SDS011;25829;50.228;18.936;2023-01-04T11:07:30;8.13;;;6.20;;
40116;SDS011;25829;50.228;18.936;2023-01-04T11:10:55;9.43;;;5.80;;
40116;SDS011;25829;50.228;18.936;2023-01-04T11:13:59;10.00;;;5.90;;
40116;SDS011;25829;50.228;18.936;2023-01-04T11:17:03;9.13;;;6.13;;
40116;SDS011;25829;50.228;18.936;2023-01-04T11:20:09;9.30;;;6.20;;
40116;SDS011;25829;50.228;18.936;2023-01-04T11:36:30;9.37;;;6.30;;
40116;SDS011;25829;50.228;18.936;2023-01-04T11:39:37;11.97;;;6.93;;
40116;SDS011;25829;50.228;18.936;2023-01-04T11:42:38;7.43;;;5.90;;
40116;SDS011;25829;50.228;18.936;2023-01-04T11:45:51;9.87;;;6.27;;
40116;SDS011;25829;50.228;18.936;2023-01-04T11:49:34;9.23;;;6.33;;
40116;SDS011;25829;50.228;18.936;2023-01-04T11:52:44;8.90;;;5.37;;
40116;SDS011;25829;50.228;18.936;2023-01-04T11:55:46;9.73;;;6.80;;
40116;SDS011;25829;50.228;18.936;2023-01-04T12:05:24;9.60;;;6.27;;
40116;SDS011;25829;50.228;18.936;2023-01-04T12:08:29;6.67;;;5.03;;
40116;SDS011;25829;50.228;18.936;2023-01-04T12:11:35;8.43;;;6.20;;
40116;SDS011;25829;50.228;18.936;2023-01-04T12:14:43;10.10;;;6.03;;
40116;SDS011;25829;50.228;18.936;2023-01-04T12:17:50;6.27;;;4.90;;
40116;SDS011;25829;50.228;18.936;2023-01-04T12:20:57;7.23;;;5.57;;
40116;SDS011;25829;50.228;18.936;2023-01-04T12:24:00;6.10;;;4.53;;
40116;SDS011;25829;50.228;18.936;2023-01-04T12:27:09;7.43;;;4.97;;
40116;SDS011;25829;50.228;18.936;2023-01-04T12:30:31;7.13;;;5.00;;
40116;SDS011;25829;50.228;18.936;2023-01-04T12:33:41;7.23;;;5.00;;
40116;SDS011;25829;50.228;18.936;2023-01-04T12:39:59;8.63;;;5.27;;
40116;SDS011;25829;50.228;18.936;2023-01-04T12:52:58;6.17;;;4.30;;
40116;SDS011;25829;50.228;18.936;2023-01-04T12:56:00;7.13;;;4.60;;
40116;SDS011;25829;50.228;18.936;2023-01-04T12:59:05;6.50;;;3.93;;
40116;SDS011;25829;50.228;18.936;2023-01-04T13:02:14;7.33;;;4.30;;
40116;SDS011;25829;50.228;18.936;2023-01-04T13:05:33;8.17;;;4.17;;
40116;SDS011;25829;50.228;18.936;2023-01-04T13:08:42;5.23;;;3.80;;
40116;SDS011;25829;50.228;18.936;2023-01-04T13:11:51;5.07;;;3.97;;
40116;SDS011;25829;50.228;18.936;2023-01-04T13:15:18;6.73;;;4.27;;
40116;SDS011;25829;50.228;18.936;2023-01-04T13:21:43;5.50;;;4.00;;
40116;SDS011;25829;50.228;18.936;2023-01-04T13:24:46;6.77;;;4.60;;
40116;SDS011;25829;50.228;18.936;2023-01-04T13:27:57;6.27;;;4.03;;
40116;SDS011;25829;50.228;18.936;2023-01-04T13:30:59;5.73;;;4.53;;
40116;SDS011;25829;50.228;18.936;2023-01-04T13:34:00;8.20;;;4.73;;
40116;SDS011;25829;50.228;18.936;2023-01-04T13:37:03;6.70;;;4.73;;
40116;SDS011;25829;50.228;18.936;2023-01-04T13:46:35;7.93;;;5.20;;
40116;SDS011;25829;50.228;18.936;2023-01-04T13:49:41;4.57;;;4.00;;
40116;SDS011;25829;50.228;18.936;2023-01-04T13:52:45;6.00;;;4.70;;
40116;SDS011;25829;50.228;18.936;2023-01-04T13:55:58;6.27;;;4.60;;
40116;SDS011;25829;50.228;18.936;2023-01-04T13:59:03;6.53;;;4.53;;
40116;SDS011;25829;50.228;18.936;2023-01-04T14:02:11;5.00;;;4.37;;
40116;SDS011;25829;50.228;18.936;2023-01-04T14:05:33;6.60;;;4.67;;
40116;SDS011;25829;50.228;18.936;2023-01-04T14:08:41;6.43;;;4.13;;
40116;SDS011;25829;50.228;18.936;2023-01-04T14:11:51;5.80;;;4.40;;
40116;SDS011;25829;50.228;18.936;2023-01-04T14:18:24;5.23;;;3.70;;
40116;SDS011;25829;50.228;18.936;2023-01-04T14:21:34;6.80;;;3.90;;
40116;SDS011;25829;50.228;18.936;2023-01-04T14:24:36;7.33;;;3.90;;
40116;SDS011;25829;50.228;18.936;2023-01-04T14:27:40;4.87;;;4.10;;
40116;SDS011;25829;50.228;18.936;2023-01-04T14:30:42;6.70;;;4.07;;
40116;SDS011;25829;50.228;18.936;2023-01-04T14:33:52;5.43;;;4.10;;
40116;SDS011;25829;50.228;18.936;2023-01-04T14:43:44;6.10;;;3.93;;
40116;SDS011;25829;50.228;18.936;2023-01-04T14:47:12;4.93;;;3.67;;
40116;SDS011;25829;50.228;18.936;2023-01-04T14:50:13;6.27;;;3.97;;
40116;SDS011;25829;50.228;18.936;2023-01-04T14:53:25;5.37;;;3.50;;
40116;SDS011;25829;50.228;18.936;2023-01-04T14:56:36;4.40;;;3.47;;
40116;SDS011;25829;50.228;18.936;2023-01-04T14:59:36;4.10;;;3.33;;
40116;SDS011;25829;50.228;18.936;2023-01-04T15:02:40;4.30;;;3.43;;
40116;SDS011;25829;50.228;18.936;2023-01-04T15:05:44;3.93;;;3.20;;
40116;SDS011;25829;50.228;18.936;2023-01-04T15:08:45;3.93;;;3.10;;
40116;SDS011;25829;50.228;18.936;2023-01-04T15:11:47;4.63;;;3.37;;
40116;SDS011;25829;50.228;18.936;2023-01-04T15:14:50;6.03;;;3.40;;
40116;SDS011;25829;50.228;18.936;2023-01-04T15:17:51;4.33;;;2.83;;
40116;SDS011;25829;50.228;18.936;2023-01-04T15:20:52;4.63;;;3.30;;
40116;SDS011;25829;50.228;18.936;2023-01-04T15:23:53;4.97;;;3.20;;
40116;SDS011;25829;50.228;18.936;2023-01-04T15:26:56;5.47;;;3.50;;
40116;SDS011;25829;50.228;18.936;2023-01-04T15:30:01;3.57;;;2.97;;
40116;SDS011;25829;50.228;18.936;2023-01-04T15:33:02;4.17;;;3.13;;
40116;SDS011;25829;50.228;18.936;2023-01-04T15:36:08;4.77;;;3.10;;
40116;SDS011;25829;50.228;18.936;2023-01-04T15:39:12;4.70;;;3.50;;
40116;SDS011;25829;50.228;18.936;2023-01-04T15:42:13;5.87;;;3.57;;
40116;SDS011;25829;50.228;18.936;2023-01-04T15:45:36;3.83;;;2.80;;
40116;SDS011;25829;50.228;18.936;2023-01-04T15:48:38;4.77;;;3.20;;
40116;SDS011;25829;50.228;18.936;2023-01-04T15:51:38;5.73;;;3.50;;
40116;SDS011;25829;50.228;18.936;2023-01-04T15:54:39;3.83;;;2.90;;
40116;SDS011;25829;50.228;18.936;2023-01-04T15:57:40;8.33;;;3.50;;
40116;SDS011;25829;50.228;18.936;2023-01-04T16:00:41;5.23;;;3.63;;
40116;SDS011;25829;50.228;18.936;2023-01-04T16:03:42;4.60;;;3.57;;
40116;SDS011;25829;50.228;18.936;2023-01-04T16:06:42;4.87;;;3.80;;
40116;SDS011;25829;50.228;18.936;2023-01-04T16:09:43;5.47;;;3.70;;
40116;SDS011;25829;50.228;18.936;2023-01-04T16:12:44;7.10;;;4.00;;
40116;SDS011;25829;50.228;18.936;2023-01-04T16:15:51;7.23;;;4.20;;
40116;SDS011;25829;50.228;18.936;2023-01-04T16:26:29;8.83;;;4.90;;
40116;SDS011;25829;50.228;18.936;2023-01-04T16:33:05;6.50;;;4.23;;
40116;SDS011;25829;50.228;18.936;2023-01-04T16:36:07;6.13;;;4.60;;
40116;SDS011;25829;50.228;18.936;2023-01-04T16:39:10;6.40;;;4.60;;
40116;SDS011;25829;50.228;18.936;2023-01-04T16:42:11;8.40;;;4.93;;
40116;SDS011;25829;50.228;18.936;2023-01-04T16:45:11;6.30;;;4.47;;
40116;SDS011;25829;50.228;18.936;2023-01-04T16:48:12;5.70;;;4.47;;
40116;SDS011;25829;50.228;18.936;2023-01-04T16:51:13;5.57;;;4.23;;
40116;SDS011;25829;50.228;18.936;2023-01-04T16:54:15;8.27;;;5.10;;
40116;SDS011;25829;50.228;18.936;2023-01-04T16:57:20;6.33;;;4.47;;
40116;SDS011;25829;50.228;18.936;2023-01-04T17:00:23;6.93;;;4.73;;
40116;SDS011;25829;50.228;18.936;2023-01-04T17:03:23;7.30;;;5.00;;
40116;SDS011;25829;50.228;18.936;2023-01-04T17:06:25;5.27;;;4.13;;
40116;SDS011;25829;50.228;18.936;2023-01-04T17:09:30;6.57;;;4.50;;
40116;SDS011;25829;50.228;18.936;2023-01-04T17:12:31;7.30;;;4.90;;
40116;SDS011;25829;50.228;18.936;2023-01-04T17:15:34;7.17;;;4.57;;
40116;SDS011;25829;50.228;18.936;2023-01-04T17:18:35;5.60;;;4.30;;
40116;SDS011;25829;50.228;18.936;2023-01-04T17:21:37;6.80;;;4.90;;
40116;SDS011;25829;50.228;18.936;2023-01-04T17:24:38;9.10;;;4.87;;
40116;SDS011;25829;50.228;18.936;2023-01-04T17:27:39;7.13;;;5.03;;
40116;SDS011;25829;50.228;18.936;2023-01-04T17:30:40;7.43;;;5.07;;
40116;SDS011;25829;50.228;18.936;2023-01-04T17:40:32;9.67;;;4.60;;
40116;SDS011;25829;50.228;18.936;2023-01-04T17:55:09;6.93;;;4.80;;
40116;SDS011;25829;50.228;18.936;2023-01-04T17:58:13;8.13;;;4.70;;
40116;SDS011;25829;50.228;18.936;2023-01-04T18:08:16;10.10;;;4.50;;
40116;SDS011;25829;50.228;18.936;2023-01-04T18:28:46;10.00;;;5.53;;
40116;SDS011;25829;50.228;18.936;2023-01-04T18:35:22;6.57;;;3.93;;
40116;SDS011;25829;50.228;18.936;2023-01-04T18:41:39;5.67;;;3.53;;
40116;SDS011;25829;50.228;18.936;2023-01-04T18:44:40;9.83;;;3.90;;
40116;SDS011;25829;50.228;18.936;2023-01-04T18:47:41;6.33;;;3.97;;
40116;SDS011;25829;50.228;18.936;2023-01-04T18:50:42;7.37;;;4.77;;
40116;SDS011;25829;50.228;18.936;2023-01-04T18:53:43;5.17;;;3.67;;
40116;SDS011;25829;50.228;18.936;2023-01-04T18:56:44;5.87;;;4.00;;
40116;SDS011;25829;50.228;18.936;2023-01-04T18:59:44;6.67;;;3.77;;
40116;SDS011;25829;50.228;18.936;2023-01-04T19:03:00;5.17;;;3.80;;
40116;SDS011;25829;50.228;18.936;2023-01-04T19:06:11;10.90;;;6.10;;
40116;SDS011;25829;50.228;18.936;2023-01-04T19:09:12;9.13;;;5.20;;
40116;SDS011;25829;50.228;18.936;2023-01-04T19:12:12;9.00;;;3.97;;
40116;SDS011;25829;50.228;18.936;2023-01-04T19:15:14;9.43;;;5.17;;
40116;SDS011;25829;50.228;18.936;2023-01-04T19:18:15;7.80;;;5.27;;
40116;SDS011;25829;50.228;18.936;2023-01-04T19:21:16;5.77;;;3.80;;
40116;SDS011;25829;50.228;18.936;2023-01-04T19:24:17;7.33;;;4.63;;
40116;SDS011;25829;50.228;18.936;2023-01-04T19:27:17;8.77;;;5.57;;
40116;SDS011;25829;50.228;18.936;2023-01-04T19:30:21;8.23;;;4.67;;
40116;SDS011;25829;50.228;18.936;2023-01-04T19:33:22;12.93;;;6.47;;
40116;SDS011;25829;50.228;18.936;2023-01-04T19:36:22;6.13;;;4.30;;
40116;SDS011;25829;50.228;18.936;2023-01-04T19:39:23;10.40;;;4.87;;
40116;SDS011;25829;50.228;18.936;2023-01-04T19:42:24;5.97;;;4.30;;
40116;SDS011;25829;50.228;18.936;2023-01-04T19:45:24;6.90;;;4.33;;
40116;SDS011;25829;50.228;18.936;2023-01-04T19:48:25;5.43;;;4.33;;
40116;SDS011;25829;50.228;18.936;2023-01-04T19:51:26;6.27;;;4.03;;
40116;SDS011;25829;50.228;18.936;2023-01-04T19:54:27;6.30;;;3.70;;
40116;SDS011;25829;50.228;18.936;2023-01-04T19:57:28;5.10;;;3.53;;
40116;SDS011;25829;50.228;18.936;2023-01-04T20:00:29;7.53;;;4.67;;
40116;SDS011;25829;50.228;18.936;2023-01-04T20:03:29;5.87;;;3.97;;
40116;SDS011;25829;50.228;18.936;2023-01-04T20:06:43;5.77;;;4.20;;
40116;SDS011;25829;50.228;18.936;2023-01-04T20:10:10;7.90;;;4.63;;
40116;SDS011;25829;50.228;18.936;2023-01-04T20:13:11;7.17;;;4.20;;
40116;SDS011;25829;50.228;18.936;2023-01-04T20:20:25;9.93;;;5.17;;
40116;SDS011;25829;50.228;18.936;2023-01-04T20:23:25;3.90;;;3.50;;
40116;SDS011;25829;50.228;18.936;2023-01-04T20:26:26;9.10;;;4.83;;
40116;SDS011;25829;50.228;18.936;2023-01-04T20:29:27;11.10;;;5.30;;
40116;SDS011;25829;50.228;18.936;2023-01-04T20:32:28;4.03;;;3.50;;
40116;SDS011;25829;50.228;18.936;2023-01-04T20:35:29;9.17;;;4.37;;
40116;SDS011;25829;50.228;18.936;2023-01-04T20:38:30;6.03;;;3.97;;
40116;SDS011;25829;50.228;18.936;2023-01-04T20:41:31;9.73;;;4.53;;
40116;SDS011;25829;50.228;18.936;2023-01-04T20:44:32;6.80;;;4.13;;
40116;SDS011;25829;50.228;18.936;2023-01-04T20:47:33;11.07;;;4.90;;
40116;SDS011;25829;50.228;18.936;2023-01-04T20:50:34;5.13;;;3.53;;
40116;SDS011;25829;50.228;18.936;2023-01-04T20:53:35;5.23;;;3.63;;
40116;SDS011;25829;50.228;18.936;2023-01-04T20:56:38;6.93;;;3.53;;